Data for 09/23/2014

Time Sea-Level Adjusted Pressure Absolute Pressure Temperature Relative Humidity Dew Point   
(mb) (inHg) (mb) (inHg) (C) (F) (%) (C) (F)
00:05 1020 30.12 849 25.07 12.9 55.1 66 6.7 44
00:10 1020 30.12 849 25.07 12.6 54.7 67 6.6 43.9
00:15 1020 30.12 849 25.07 12.6 54.7 67 6.7 44
00:20 1020 30.12 849 25.07 12.3 54.1 69 6.8 44.3
00:25 1020 30.12 849 25.07 11.8 53.3 71 6.7 44
00:30 1020 30.12 849 25.07 11.7 53 69 6.2 43.2
00:35 1020 30.12 849 25.07 12.1 53.8 67 6.2 43.2
00:40 1020 30.12 849 25.07 12.6 54.6 66 6.4 43.6
00:45 1020 30.12 849 25.07 12.4 54.3 68 6.6 43.9
00:50 1020 30.12 849 25.07 12.4 54.2 67 6.5 43.7
00:55 1020 30.12 849 25.07 12.2 54 68 6.5 43.7
01:00 1020 30.12 849 25.07 11.9 53.4 70 6.6 44
01:05 1020 30.12 849 25.07 11.5 52.8 72 6.7 44
01:10 1020 30.12 849 25.07 11.2 52.2 72 6.5 43.6
01:15 1020 30.12 849 25.07 11.2 52.2 72 6.4 43.5
01:20 1020 30.12 849 25.07 11.3 52.4 73 6.6 43.9
01:25 1020 30.12 849 25.07 11.2 52.1 72 6.4 43.4
01:30 1020 30.12 849 25.07 11.4 52.4 71 6.3 43.4
01:35 1020 30.12 849 25.07 11.6 52.9 69 6.3 43.3
01:40 1020 30.12 849 25.07 11.9 53.4 68 6.2 43.2
01:45 1020 30.12 849 25.07 12.2 53.9 67 6.3 43.4
01:50 1020 30.12 849 25.07 12.3 54.2 67 6.5 43.7
01:55 1020 30.12 849 25.07 12.2 54 67 6.3 43.3
02:00 1020 30.12 849 25.07 12.2 54 67 6.4 43.5
02:05 1020 30.12 849 25.07 12.1 53.9 67 6.3 43.4
02:10 1020 30.12 849 25.07 11.9 53.4 68 6.3 43.4
02:15 1020 30.12 849 25.07 11.9 53.3 69 6.4 43.5
02:20 1020 30.12 849 25.07 11.6 52.9 70 6.3 43.3
02:25 1020 30.12 849 25.07 11.5 52.7 70 6.4 43.4
02:30 1020 30.12 849 25.07 11.2 52.1 72 6.3 43.3
02:35 1020 30.12 849 25.07 11.2 52.2 71 6.2 43.1
02:40 1020 30.12 849 25.07 11.5 52.6 69 6 42.8
02:45 1020 30.12 849 25.07 12 53.5 68 6.2 43.2
02:50 1020 30.12 849 25.07 11.8 53.3 69 6.3 43.3
02:55 1020 30.12 850 25.1 11.7 53 70 6.3 43.4
03:00 1020 30.12 850 25.1 11.4 52.4 71 6.3 43.4
03:05 1020 30.12 850 25.1 11.3 52.4 71 6.3 43.3
03:10 1020 30.12 850 25.1 11.2 52.1 72 6.4 43.4
03:15 1020 30.12 850 25.1 11.2 52.1 72 6.4 43.4
03:20 1020 30.12 850 25.1 10.9 51.6 73 6.3 43.4
03:25 1020 30.12 850 25.1 10.7 51.3 74 6.3 43.3
03:30 1021 30.15 850 25.1 10.9 51.5 72 6.1 42.9
03:35 1021 30.15 850 25.1 11.2 52.1 72 6.3 43.4
03:40 1021 30.15 850 25.1 11 51.9 72 6.3 43.3
03:45 1021 30.15 850 25.1 10.9 51.6 74 6.4 43.6
03:50 1021 30.15 850 25.1 10.5 50.9 74 6.1 43.1
03:55 1021 30.15 850 25.1 10.3 50.6 74 6 42.7
04:00 1021 30.15 850 25.1 10.9 51.5 73 6.2 43.1
04:05 1021 30.15 850 25.1 10.8 51.5 73 6.3 43.4
04:10 1021 30.15 850 25.1 10.9 51.5 73 6.2 43.2
04:15 1021 30.15 850 25.1 10.9 51.7 72 6.1 43
04:20 1021 30.15 850 25.1 10.7 51.3 74 6.2 43.1
04:25 1021 30.15 850 25.1 10.5 50.9 72 5.8 42.4
04:30 1021 30.15 850 25.1 10.8 51.4 73 6.1 42.9
04:35 1021 30.15 850 25.1 10.8 51.4 73 6.1 43
04:40 1021 30.15 850 25.1 10.4 50.7 75 6.2 43.1
04:45 1021 30.15 850 25.1 10 50.1 76 6 42.9
04:50 1020 30.12 850 25.1 10.1 50.2 75 5.9 42.6
04:55 1020 30.12 850 25.1 9.6 49.2 80 6.3 43.4
05:00 1020 30.12 850 25.1 8.8 47.8 81 5.7 42.2
05:05 1020 30.12 850 25.1 9.2 48.6 78 5.6 42
05:10 1020 30.12 850 25.1 10.6 51.1 73 5.9 42.7
05:15 1021 30.15 850 25.1 10.8 51.4 73 6.2 43.2
05:20 1021 30.15 850 25.1 10.5 51 74 6.1 43
05:25 1021 30.15 850 25.1 10.4 50.8 74 6.1 43
05:30 1021 30.15 850 25.1 10.3 50.6 75 6.1 42.9
05:35 1021 30.15 850 25.1 10.1 50.2 76 6 42.9
05:40 1021 30.15 850 25.1 10.4 50.6 75 6.1 42.9
05:45 1021 30.15 850 25.1 10.1 50.1 76 6 42.7
05:50 1021 30.15 850 25.1 10.6 51 72 5.8 42.4
05:55 1021 30.15 850 25.1 11 51.8 72 6.1 43.1
06:00 1021 30.15 850 25.1 10.7 51.2 72 5.8 42.5
06:05 1021 30.15 850 25.1 11.3 52.3 70 6.1 43
06:10 1021 30.15 850 25.1 11.2 52.2 72 6.3 43.4
06:15 1021 30.15 850 25.1 10.9 51.6 72 6.2 43.1
06:20 1021 30.15 850 25.1 10.6 51.1 73 6.1 43
06:25 1021 30.15 850 25.1 10.6 51.2 73 6.1 42.9
06:30 1021 30.15 850 25.1 10.5 50.9 73 5.9 42.7
06:35 1021 30.15 850 25.1 10.8 51.4 72 6 42.7
06:40 1021 30.15 850 25.1 10.9 51.7 71 6 42.8
06:45 1021 30.15 850 25.1 10.9 51.7 72 6.2 43.1
06:50 1021 30.15 850 25.1 10.7 51.3 73 6.2 43.1
06:55 1021 30.15 850 25.1 10.5 50.8 73 5.9 42.6
07:00 1021 30.15 850 25.1 11.2 52.1 70 5.9 42.6
07:05 1021 30.15 850 25.1 11.8 53.3 68 6.1 43
07:10 1021 30.15 850 25.1 12.2 54 67 6.4 43.6
07:15 1021 30.15 850 25.1 11.9 53.4 69 6.4 43.6
07:20 1021 30.15 850 25.1 11.9 53.3 70 6.5 43.7
07:25 1021 30.15 850 25.1 12.1 53.7 69 6.5 43.8
07:30 1021 30.15 850 25.1 12.1 53.9 69 6.6 43.9
07:35 1021 30.15 850 25.1 12.4 54.2 68 6.7 44.1
07:40 1021 30.15 850 25.1 12.8 55.1 66 6.7 44
07:45 1021 30.15 851 25.13 13.5 56.2 64 6.8 44.2
07:50 1021 30.15 851 25.13 13.8 56.9 63 7 44.7
07:55 1022 30.18 851 25.13 14.2 57.5 61 6.8 44.3
08:00 1022 30.18 851 25.13 14.6 58.2 60 7 44.7
08:05 1022 30.18 851 25.13 14.7 58.5 61 7.4 45.3
08:10 1022 30.18 851 25.13 15 59 60 7.4 45.3
08:15 1022 30.18 851 25.13 15.3 59.6 59 7.4 45.2
08:20 1022 30.18 851 25.13 16 60.8 56 7.2 44.9
08:25 1022 30.18 851 25.13 16.5 61.6 54 7.3 45.2
08:30 1022 30.18 851 25.13 16.8 62.2 53 7.4 45.3
08:35 1022 30.18 851 25.13 17.2 63 52 7.4 45.4
08:40 1022 30.18 851 25.13 17.6 63.8 52 7.8 46
08:45 1022 30.18 851 25.13 17.7 63.9 51 7.4 45.4
08:50 1022 30.18 851 25.13 17.5 63.5 53 7.9 46.1
08:55 1022 30.18 851 25.13 17.2 62.9 54 7.9 46.3
09:00 1022 30.18 851 25.13 16.8 62.2 56 8 46.4
09:05 1022 30.18 851 25.13 16.4 61.5 57 7.9 46.2
09:10 1022 30.18 851 25.13 17.1 62.8 55 8 46.4
09:15 1022 30.18 851 25.13 17.4 63.3 55 8.3 47
09:20 1022 30.18 851 25.13 17.8 64 53 8.3 46.9
09:25 1022 30.18 851 25.13 17.9 64.1 54 8.6 47.4
09:30 1022 30.18 851 25.13 18.2 64.7 53 8.6 47.5
09:35 1022 30.18 851 25.13 18.2 64.7 53 8.6 47.5
09:40 1022 30.18 851 25.13 18.2 64.8 52 8.3 47
09:45 1022 30.18 851 25.13 18.8 65.9 50 8.5 47.2
09:50 1022 30.18 851 25.13 19.2 66.6 50 8.7 47.7
09:55 1022 30.18 851 25.13 19.3 66.7 49 8.4 47.2
10:00 1022 30.18 851 25.13 19.4 66.9 48 8.1 46.7
10:05 1022 30.18 851 25.13 19.4 67 48 8.4 47.1
10:10 1022 30.18 851 25.13 19.4 67 46 7.6 45.7
10:15 1022 30.18 851 25.13 19.7 67.4 46 8 46.3
10:20 1022 30.18 851 25.13 20.1 68.1 44 7.5 45.5
10:25 1022 30.18 851 25.13 20.4 68.8 42 7.4 45.3
10:30 1022 30.18 851 25.13 20.6 69 45 8.3 46.9
10:35 1022 30.18 851 25.13 20.6 69 44 8 46.3
10:40 1021 30.15 851 25.13 20.9 69.6 43 8.2 46.7
10:45 1021 30.15 851 25.13 20.7 69.2 42 7.5 45.5
10:50 1021 30.15 851 25.13 20.8 69.4 44 8.3 47
10:55 1021 30.15 850 25.1 20.5 68.9 44 7.9 46.2
11:00 1021 30.15 850 25.1 21 69.8 42 7.9 46.3
11:05 1021 30.15 850 25.1 21.5 70.6 41 7.7 45.9
11:10 1021 30.15 850 25.1 21.4 70.5 41 7.9 46.3
11:15 1021 30.15 850 25.1 20.8 69.4 44 8.2 46.7
11:20 1021 30.15 850 25.1 21.2 70.2 42 7.8 46.1
11:25 1021 30.15 850 25.1 21.4 70.5 41 7.9 46.2
11:30 1021 30.15 850 25.1 21.6 71 39 7.3 45.2
11:35 1021 30.15 850 25.1 22.1 71.8 39 7.8 46.1
11:40 1021 30.15 850 25.1 22.5 72.4 36 6.8 44.2
11:45 1021 30.15 850 25.1 23.1 73.6 36 7.3 45.2
11:50 1021 30.15 850 25.1 22.2 72 37 7.1 44.7
11:55 1021 30.15 850 25.1 22.1 71.7 38 7.2 44.9
12:00 1021 30.15 850 25.1 22.3 72.2 37 7 44.6
12:05 1021 30.15 850 25.1 23.4 74.1 34 6.9 44.4
12:10 1021 30.15 850 25.1 24.5 76.1 32 7 44.6
12:15 1021 30.15 850 25.1 23.3 73.9 36 7.7 45.9
12:20 1021 30.15 850 25.1 23.7 74.7 35 7.5 45.5
12:25 1021 30.15 850 25.1 23.6 74.4 34 7 44.7
12:30 1021 30.15 850 25.1 23.5 74.2 32 6.2 43.2
12:35 1021 30.15 850 25.1 24 75.1 33 7.1 44.8
12:40 1021 30.15 850 25.1 22.9 73.2 35 6.7 44
12:45 1020 30.12 850 25.1 22.9 73.2 35 6.7 44
12:50 1020 30.12 850 25.1 23.4 74.2 33 6.5 43.8
12:55 1020 30.12 849 25.07 24.8 76.6 30 6.2 43.2
13:00 1020 30.12 849 25.07 25.3 77.6 29 6.1 42.9
13:05 1020 30.12 849 25.07 25.5 78 30 6.7 44.1
13:10 1020 30.12 849 25.07 25.2 77.3 30 6.5 43.6
13:15 1020 30.12 849 25.07 25.4 77.8 28 6 42.9
13:20 1020 30.12 849 25.07 25.7 78.3 28 6.3 43.4
13:25 1020 30.12 849 25.07 25.7 78.2 29 6.3 43.4
13:30 1020 30.12 849 25.07 26.1 79 28 6.5 43.7
13:35 1020 30.12 849 25.07 26.2 79.2 29 7.1 44.8
13:40 1020 30.12 849 25.07 26.4 79.5 29 7.1 44.9
13:45 1020 30.12 849 25.07 26 78.8 29 6.8 44.3
13:50 1020 30.12 849 25.07 25.8 78.5 30 7.1 44.7
13:55 1020 30.12 849 25.07 26.2 79.1 29 6.9 44.4
14:00 1020 30.12 849 25.07 26 78.8 29 6.6 43.9
14:05 1020 30.12 849 25.07 26 78.8 28 6.6 43.8
14:10 1020 30.12 849 25.07 26.4 79.5 28 6.8 44.2
14:15 1020 30.12 849 25.07 25.9 78.6 29 7 44.6
14:20 1020 30.12 849 25.07 25.9 78.6 29 6.5 43.7
14:25 1020 30.12 849 25.07 26.2 79.2 28 6.7 44
14:30 1020 30.12 849 25.07 26.5 79.6 28 6.7 44.1
14:35 1020 30.12 849 25.07 26 78.9 29 7 44.6
14:40 1020 30.12 849 25.07 25.4 77.7 30 6.7 44
14:45 1020 30.12 849 25.07 24.7 76.5 32 7.1 44.9
14:50 1020 30.12 849 25.07 24.5 76.2 32 7.2 45
14:55 1019 30.09 849 25.07 24.3 75.7 34 7.5 45.4
15:00 1019 30.09 849 25.07 24.1 75.3 33 7 44.7
15:05 1019 30.09 849 25.07 23.8 74.8 33 6.8 44.2
15:10 1019 30.09 849 25.07 24.2 75.5 32 6.6 43.8
15:15 1019 30.09 848 25.04 24.8 76.7 31 6.7 44.1
15:20 1019 30.09 848 25.04 25.3 77.5 30 6.5 43.8
15:25 1019 30.09 848 25.04 24.8 76.7 30 6.3 43.3
15:30 1019 30.09 848 25.04 24.9 76.7 29 6 42.7
15:35 1019 30.09 848 25.04 25.2 77.3 28 5.9 42.6
15:40 1019 30.09 848 25.04 25.8 78.5 29 6.6 43.9
15:45 1019 30.09 848 25.04 25.6 78.1 32 7.9 46.2
15:50 1019 30.09 848 25.04 25.1 77.2 30 6.7 44.1
15:55 1019 30.09 848 25.04 25.5 77.8 29 6.5 43.6
16:00 1019 30.09 848 25.04 25.4 77.8 29 6.3 43.4
16:05 1019 30.09 848 25.04 25 76.9 29 6.1 43.1
16:10 1019 30.09 848 25.04 24.7 76.5 30 6.1 43
16:15 1019 30.09 848 25.04 24.7 76.5 31 6.8 44.2
16:20 1019 30.09 848 25.04 24.8 76.7 30 6.2 43.1
16:25 1019 30.09 848 25.04 24.9 76.7 31 7 44.6
16:30 1019 30.09 848 25.04 24.8 76.7 30 6.2 43.2
16:35 1019 30.09 849 25.07 24.7 76.5 33 7.5 45.5
16:40 1019 30.09 849 25.07 24.4 76 32 7 44.5
16:45 1019 30.09 849 25.07 23.9 75.1 34 7.1 44.8
16:50 1020 30.12 849 25.07 23.8 74.9 35 7.5 45.6
16:55 1020 30.12 849 25.07 22.7 72.9 36 7 44.6
17:00 1020 30.12 849 25.07 21.7 71 39 7.2 44.9
17:05 1020 30.12 849 25.07 21.3 70.3 40 7.2 45
17:10 1020 30.12 849 25.07 21.2 70.2 41 7.7 45.8
17:15 1020 30.12 849 25.07 21.2 70.1 41 7.7 45.9
17:20 1020 30.12 849 25.07 20.9 69.6 41 7.3 45.2
17:25 1020 30.12 849 25.07 21.1 70 42 7.7 45.9
17:30 1020 30.12 849 25.07 21.1 70 42 7.9 46.3
17:35 1020 30.12 849 25.07 20.6 69.1 42 7.5 45.5
17:40 1020 30.12 849 25.07 20.5 69 42 7.2 44.9
17:45 1020 30.12 849 25.07 20.4 68.7 42 7.1 44.8
17:50 1020 30.12 849 25.07 20.3 68.6 39 6.2 43.1
17:55 1020 30.12 849 25.07 20.1 68.1 47 8.5 47.3
18:00 1020 30.12 849 25.07 18.9 66 55 9.8 49.6
18:05 1020 30.12 849 25.07 18.4 65.1 55 9.3 48.8
18:10 1020 30.12 849 25.07 18.3 64.9 56 9.6 49.2
18:15 1020 30.12 849 25.07 18 64.5 58 9.8 49.7
18:20 1020 30.12 849 25.07 17.6 63.7 61 10.2 50.3
18:25 1020 30.12 849 25.07 17.2 63 64 10.5 50.8
18:30 1020 30.12 849 25.07 16.9 62.4 65 10.3 50.5
18:35 1020 30.12 849 25.07 17 62.6 63 9.9 49.8
18:40 1020 30.12 849 25.07 17 62.5 63 9.9 49.9
18:45 1020 30.12 849 25.07 16.9 62.3 62 9.7 49.5
18:50 1020 30.12 849 25.07 16.8 62.2 64 10 50
18:55 1020 30.12 849 25.07 16.5 61.6 64 9.7 49.5
19:00 1020 30.12 849 25.07 16.4 61.4 64 9.5 49.1
19:05 1020 30.12 849 25.07 16.4 61.6 62 9.3 48.7
19:10 1020 30.12 849 25.07 16.5 61.7 62 9.3 48.7
19:15 1020 30.12 849 25.07 16.6 61.8 60 8.9 48.1
19:20 1020 30.12 849 25.07 16.7 62 59 8.7 47.7
19:25 1020 30.12 849 25.07 16.6 61.8 60 8.9 48
19:30 1020 30.12 849 25.07 16.5 61.6 60 8.8 47.8
19:35 1020 30.12 849 25.07 16.4 61.6 61 9 48.1
19:40 1020 30.12 849 25.07 16.4 61.5 61 9 48.2
19:45 1020 30.12 850 25.1 16.4 61.5 61 8.9 48
19:50 1020 30.12 850 25.1 16.4 61.6 60 8.8 47.8
19:55 1020 30.12 850 25.1 16.5 61.7 60 8.7 47.7
20:00 1020 30.12 850 25.1 16.6 61.9 57 8.2 46.7
20:05 1020 30.12 850 25.1 17 62.5 57 8.5 47.3
20:10 1021 30.15 850 25.1 17 62.7 56 8.4 47.1
20:15 1021 30.15 850 25.1 17.1 62.8 56 8.4 47.1
20:20 1021 30.15 850 25.1 17.1 62.8 55 8.1 46.6
20:25 1021 30.15 850 25.1 17.2 62.9 55 8.3 46.9
20:30 1021 30.15 850 25.1 17.2 63 55 8.2 46.8
20:35 1021 30.15 850 25.1 17.3 63.1 55 8.2 46.7
20:40 1021 30.15 850 25.1 17.3 63.2 54 8.1 46.5
20:45 1021 30.15 850 25.1 17.3 63.2 54 8.1 46.6
20:50 1021 30.15 850 25.1 17.3 63.2 54 8.1 46.6
20:55 1021 30.15 850 25.1 17.3 63.1 55 8.1 46.6
21:00 1021 30.15 850 25.1 17.2 63 55 8.1 46.7
21:05 1021 30.15 850 25.1 17.2 62.9 55 8.2 46.7
21:10 1021 30.15 850 25.1 17.1 62.8 55 8.2 46.8
21:15 1021 30.15 850 25.1 17.1 62.8 55 8.2 46.7
21:20 1021 30.15 850 25.1 17.1 62.8 55 8.1 46.6
21:25 1021 30.15 850 25.1 17.2 62.9 55 8.1 46.7
21:30 1021 30.15 850 25.1 17.2 62.9 56 8.4 47.1
21:35 1021 30.15 850 25.1 17.1 62.8 56 8.2 46.8
21:40 1021 30.15 850 25.1 17.1 62.7 56 8.2 46.8
21:45 1021 30.15 850 25.1 17 62.6 57 8.4 47.2
21:50 1021 30.15 850 25.1 16.9 62.4 57 8.3 46.9
21:55 1021 30.15 850 25.1 16.8 62.2 58 8.5 47.2
22:00 1021 30.15 850 25.1 16.6 61.9 58 8.4 47.1
22:05 1021 30.15 850 25.1 16.6 61.9 57 8.2 46.7
22:10 1021 30.15 850 25.1 16.8 62.2 57 8.4 47.1
22:15 1021 30.15 850 25.1 16.7 62 59 8.7 47.6
22:20 1021 30.15 850 25.1 16.3 61.3 60 8.7 47.7
22:25 1021 30.15 850 25.1 16.1 60.9 61 8.6 47.5
22:30 1021 30.15 850 25.1 16.1 61 60 8.4 47
22:35 1021 30.15 850 25.1 16.3 61.4 59 8.4 47.1
22:40 1021 30.15 850 25.1 16.4 61.5 58 8.1 46.6
22:45 1021 30.15 850 25.1 16.6 61.8 57 8.1 46.6
22:50 1021 30.15 850 25.1 16.5 61.6 59 8.4 47.1
22:55 1021 30.15 850 25.1 16.4 61.5 57 8 46.4
23:00 1021 30.15 850 25.1 16.5 61.7 58 8.3 46.9
23:05 1021 30.15 850 25.1 16.5 61.6 58 8.2 46.8
23:10 1021 30.15 850 25.1 16.5 61.6 58 8.3 46.9
23:15 1021 30.15 850 25.1 16.4 61.4 58 8.2 46.8
23:20 1021 30.15 850 25.1 16.3 61.3 59 8.2 46.8
23:25 1021 30.15 850 25.1 16.3 61.4 59 8.4 47.1
23:30 1021 30.15 850 25.1 16.2 61.2 61 8.7 47.7
23:35 1021 30.15 850 25.1 15.9 60.6 61 8.4 47.2
23:40 1021 30.15 850 25.1 15.9 60.7 61 8.4 47.2
23:45 1021 30.15 850 25.1 15.8 60.4 61 8.5 47.3
23:50 1021 30.15 850 25.1 15.8 60.4 61 8.4 47.1
23:55 1021 30.15 850 25.1 15.7 60.3 61 8.4 47.1
24:00 1021 30.15 850 25.1 15.9 60.6 60 8.3 47